Time;durP1;ratioP1;P1;durP2;ratioP2;P2;SDS_P1;SDS_P2;PMS_P1;PMS_P2;Temp;Humidity;BMP_temperature;BMP_pressure;BME280_temperature;BME280_humidity;BME280_pressure;Samples;Min_cycle;Max_cycle;Signal;HPM_P1;HPM_P2
2021/01/14 00:00:14;;;;;;;0.35;0.35;;;;;;;1.65;90.72;94706.66;5012777;28;20069;-79
2021/01/14 00:02:44;;;;;;;0.70;0.70;;;;;;;1.86;90.58;94703.00;5029170;28;20423;-80
2021/01/14 00:05:10;;;;;;;0.50;0.45;;;;;;;1.76;91.18;94700.38;5029615;28;20167;-80
2021/01/14 00:07:36;;;;;;;0.40;0.40;;;;;;;1.58;91.30;94711.31;5030861;28;20072;-79
2021/01/14 00:10:06;;;;;;;0.38;0.38;;;;;;;1.66;91.26;94721.31;5013197;28;20037;-79
2021/01/14 00:12:33;;;;;;;0.65;0.65;;;;;;;1.71;90.77;94729.19;5029484;28;20079;-80
2021/01/14 00:14:58;;;;;;;0.68;0.68;;;;;;;1.73;90.92;94711.38;5015378;28;20117;-80
2021/01/14 00:17:24;;;;;;;1.73;0.60;;;;;;;1.56;91.38;94709.75;5029570;28;20492;-80
2021/01/14 00:19:49;;;;;;;0.70;0.70;;;;;;;1.64;91.45;94698.00;5030496;28;20072;-79
2021/01/14 00:22:15;;;;;;;1.23;0.80;;;;;;;1.61;91.77;94718.69;5013342;28;20511;-79
2021/01/14 00:24:40;;;;;;;0.82;0.82;;;;;;;1.74;90.56;94711.13;5012661;28;20514;-79
2021/01/14 00:27:07;;;;;;;0.38;0.38;;;;;;;1.55;90.69;94720.50;5014891;28;20028;-78
2021/01/14 00:29:32;;;;;;;0.47;0.47;;;;;;;1.71;91.35;94734.44;5029112;28;20133;-79
2021/01/14 00:31:58;;;;;;;0.60;0.60;;;;;;;1.71;91.29;94739.69;5030298;28;20120;-79
2021/01/14 00:34:24;;;;;;;0.68;0.68;;;;;;;1.80;91.59;94753.88;5030475;28;20392;-79
2021/01/14 00:39:33;;;;;;;0.43;0.43;;;;;;;1.55;91.60;94731.78;5030164;28;20398;-78
2021/01/14 00:41:59;;;;;;;0.35;0.35;;;;;;;1.63;91.71;94740.19;5031160;28;20029;-78
2021/01/14 00:44:24;;;;;;;0.65;0.65;;;;;;;1.56;91.83;94728.09;5030631;28;20029;-79
2021/01/14 00:46:57;;;;;;;0.50;0.50;;;;;;;1.38;91.56;94696.31;5029144;28;20112;-78
2021/01/14 00:49:23;;;;;;;0.40;0.40;;;;;;;1.53;91.82;94754.03;5029973;28;20088;-80
2021/01/14 00:51:49;;;;;;;0.88;0.60;;;;;;;1.61;91.31;94732.56;5012568;28;20037;-79
2021/01/14 00:54:14;;;;;;;1.35;0.40;;;;;;;1.40;92.00;94731.72;5032236;28;20027;-80
2021/01/14 00:56:40;;;;;;;0.30;0.30;;;;;;;1.51;92.17;94735.16;5030511;28;20072;-80
2021/01/14 00:59:06;;;;;;;0.25;0.25;;;;;;;1.47;91.71;94745.34;5029979;28;20095;-79
2021/01/14 01:01:33;;;;;;;0.20;0.20;;;;;;;1.41;92.32;94766.56;5030143;28;20049;-79
2021/01/14 01:03:59;;;;;;;0.20;0.20;;;;;;;1.39;92.08;94764.22;5013562;28;20041;-79
2021/01/14 01:06:32;;;;;;;0.20;0.20;;;;;;;1.41;92.20;94769.19;5016335;28;20033;-80
2021/01/14 01:08:58;;;;;;;0.40;0.40;;;;;;;1.43;90.95;94788.84;5034622;28;20024;-80
2021/01/14 01:11:24;;;;;;;0.45;0.45;;;;;;;1.46;91.10;94769.22;5033602;28;20046;-80
2021/01/14 01:13:49;;;;;;;0.70;0.70;;;;;;;1.50;90.48;94763.22;5033707;28;20061;-79
2021/01/14 01:16:15;;;;;;;1.02;0.88;;;;;;;1.34;90.84;94750.31;5033572;28;20104;-80
2021/01/14 01:18:41;;;;;;;0.80;0.80;;;;;;;1.55;90.09;94760.59;5016115;28;20030;-80
2021/01/14 01:21:06;;;;;;;1.20;0.95;;;;;;;1.53;89.38;94762.69;5018162;28;20538;-79
2021/01/14 01:23:31;;;;;;;0.80;0.80;;;;;;;1.28;89.02;94749.50;5033526;28;20036;-80
2021/01/14 01:25:57;;;;;;;0.90;0.90;;;;;;;1.57;89.18;94804.91;5033522;28;20034;-79
2021/01/14 01:28:22;;;;;;;1.48;0.77;;;;;;;1.51;88.85;94804.09;5033174;28;20077;-80
2021/01/14 01:30:48;;;;;;;1.63;1.13;;;;;;;1.52;88.76;94805.66;5015329;28;20399;-79
2021/01/14 01:33:13;;;;;;;0.63;0.52;;;;;;;1.39;89.15;94795.66;5033996;28;20116;-79
2021/01/14 01:35:38;;;;;;;0.85;0.85;;;;;;;1.50;88.46;94807.75;5033524;28;20088;-79
2021/01/14 01:38:03;;;;;;;1.10;1.00;;;;;;;1.30;88.54;94784.84;5033202;28;20054;-79
2021/01/14 01:40:30;;;;;;;0.70;0.70;;;;;;;1.36;88.71;94804.00;5015139;28;20053;-79
2021/01/14 01:42:55;;;;;;;0.90;0.90;;;;;;;1.24;88.43;94783.25;5032919;28;20491;-79
2021/01/14 01:45:21;;;;;;;1.20;1.10;;;;;;;1.39;88.52;94789.63;5033202;28;20085;-79
2021/01/14 01:47:47;;;;;;;1.50;1.00;;;;;;;1.34;88.47;94805.31;5017416;28;20053;-79
2021/01/14 01:50:12;;;;;;;1.38;1.33;;;;;;;1.35;88.38;94805.06;5033034;28;20116;-79
2021/01/14 01:52:38;;;;;;;1.20;1.10;;;;;;;1.38;87.97;94799.28;5032944;28;20030;-79
2021/01/14 01:55:05;;;;;;;0.98;0.95;;;;;;;1.30;88.54;94795.34;5033194;28;20048;-78
2021/01/14 01:57:31;;;;;;;0.95;0.95;;;;;;;1.30;87.96;94786.69;5033123;28;20030;-76
2021/01/14 01:59:56;;;;;;;1.52;1.42;;;;;;;1.49;87.94;94808.03;5053278;28;20541;-80
2021/01/14 02:02:26;;;;;;;1.35;1.25;;;;;;;1.42;88.26;94802.22;5052521;28;20123;-79
2021/01/14 02:04:53;;;;;;;1.60;1.50;;;;;;;1.51;87.22;94792.81;5034855;28;20060;-79
2021/01/14 02:07:41;;;;;;;1.50;1.40;;;;;;;1.51;87.22;94798.06;5035085;28;20029;-79
2021/01/14 02:10:25;;;;;;;1.73;1.63;;;;;;;1.64;86.85;94807.28;5024123;28;20052;-78
2021/01/14 02:13:16;;;;;;;1.40;1.30;;;;;;;1.49;86.24;94795.72;5052441;28;20053;-79
2021/01/14 02:15:43;;;;;;;0.95;0.95;;;;;;;1.37;87.28;94797.72;5033691;28;20475;-79
2021/01/14 02:18:08;;;;;;;1.17;1.08;;;;;;;1.28;87.29;94789.56;5054021;28;20785;-78
2021/01/14 02:20:34;;;;;;;0.90;0.90;;;;;;;1.40;87.09;94812.94;5051937;28;20112;-77
2021/01/14 02:23:18;;;;;;;0.60;0.60;;;;;;;1.22;87.59;94811.53;5051721;28;20044;-79
2021/01/14 02:25:49;;;;;;;0.95;0.95;;;;;;;1.29;87.61;94817.34;5052314;28;20048;-79
2021/01/14 02:28:15;;;;;;;1.10;1.00;;;;;;;1.08;87.16;94778.97;5052030;28;20501;-78
2021/01/14 02:30:40;;;;;;;1.02;0.90;;;;;;;1.07;87.64;94808.03;5034133;28;20120;-77
2021/01/14 02:33:05;;;;;;;0.90;0.65;;;;;;;1.21;87.32;94814.41;5035860;28;20024;-77
2021/01/14 02:35:31;;;;;;;1.30;1.13;;;;;;;1.19;87.63;94822.53;5052051;28;20037;-78
2021/01/14 02:37:56;;;;;;;1.13;1.13;;;;;;;1.20;86.89;94803.13;5034308;28;20033;-78
2021/01/14 02:40:21;;;;;;;1.05;0.88;;;;;;;1.10;87.13;94802.28;5033835;28;20041;-78
2021/01/14 02:42:46;;;;;;;0.88;0.88;;;;;;;0.88;87.21;94784.88;5051552;28;20033;-78
2021/01/14 02:45:13;;;;;;;1.05;1.05;;;;;;;1.15;87.04;94821.44;5054226;28;20098;-78
2021/01/14 02:47:41;;;;;;;1.50;1.40;;;;;;;1.34;86.95;94839.41;5051855;28;20037;-78
2021/01/14 02:50:11;;;;;;;1.48;1.38;;;;;;;1.28;87.26;94839.34;5033883;28;20064;-78
2021/01/14 02:52:39;;;;;;;1.67;1.55;;;;;;;1.32;86.83;94844.06;5051613;28;20529;-78
2021/01/14 02:55:05;;;;;;;1.55;1.45;;;;;;;1.24;86.80;94827.81;5051851;28;20469;-78
2021/01/14 02:57:30;;;;;;;2.30;2.10;;;;;;;1.01;86.38;94786.25;5051217;28;20119;-78
2021/01/14 02:59:55;;;;;;;1.75;1.65;;;;;;;1.30;85.74;94823.38;5053439;28;20104;-78
2021/01/14 03:02:21;;;;;;;1.38;1.10;;;;;;;1.22;85.64;94819.38;5033919;28;20025;-79
2021/01/14 03:04:46;;;;;;;1.75;1.65;;;;;;;1.29;85.04;94816.56;5051564;28;20433;-79
2021/01/14 03:07:11;;;;;;;1.90;1.80;;;;;;;1.39;85.05;94839.41;5051556;28;20045;-78
2021/01/14 03:09:37;;;;;;;1.67;1.58;;;;;;;1.30;84.60;94832.03;5051212;28;20064;-79
2021/01/14 03:12:02;;;;;;;1.00;1.00;;;;;;;1.08;84.96;94814.88;5053241;28;20025;-79
2021/01/14 03:14:27;;;;;;;1.38;1.27;;;;;;;1.14;84.02;94812.03;5033579;28;20097;-79
2021/01/14 03:16:53;;;;;;;1.52;1.40;;;;;;;1.04;84.34;94820.59;5033444;28;20041;-79
2021/01/14 03:19:18;;;;;;;1.17;1.08;;;;;;;1.01;83.91;94826.31;5031051;28;20091;-76
2021/01/14 03:21:43;;;;;;;1.30;1.20;;;;;;;1.12;83.23;94813.28;5049621;28;20075;-76
2021/01/14 03:24:09;;;;;;;1.50;1.40;;;;;;;0.95;83.06;94816.84;5052513;28;20070;-76
2021/01/14 03:26:36;;;;;;;0.98;0.90;;;;;;;0.97;84.04;94846.22;5032445;28;20041;-76
2021/01/14 03:29:01;;;;;;;1.33;1.23;;;;;;;1.03;83.54;94841.81;5049994;28;20037;-76
2021/01/14 03:31:26;;;;;;;1.45;1.35;;;;;;;1.00;83.96;94855.38;5031941;28;20045;-75
2021/01/14 03:33:52;;;;;;;1.40;1.30;;;;;;;0.92;83.83;94840.94;5050197;28;20178;-75
2021/01/14 03:36:18;;;;;;;0.98;0.88;;;;;;;0.88;84.03;94831.22;5051991;28;20032;-75
2021/01/14 03:38:44;;;;;;;1.92;1.75;;;;;;;0.91;84.80;94844.56;5032616;28;20122;-76
2021/01/14 03:41:11;;;;;;;2.15;1.05;;;;;;;0.94;84.04;94840.69;5049610;28;20096;-74
2021/01/14 03:43:37;;;;;;;1.55;1.45;;;;;;;0.85;84.63;94831.69;5032489;28;20033;-76
2021/01/14 03:46:07;;;;;;;2.25;1.10;;;;;;;0.87;84.80;94835.66;5049889;28;20029;-74
2021/01/14 03:48:38;;;;;;;1.48;1.38;;;;;;;0.85;84.51;94832.50;5031982;28;20455;-75
2021/01/14 03:51:03;;;;;;;1.60;1.40;;;;;;;0.89;84.76;94844.06;5034254;28;20037;-76
2021/01/14 03:53:28;;;;;;;1.98;1.25;;;;;;;0.72;84.64;94827.69;5049883;28;20037;-75
2021/01/14 03:55:54;;;;;;;2.05;1.27;;;;;;;0.97;84.39;94859.31;5031840;28;20532;-75
2021/01/14 03:58:19;;;;;;;1.92;1.83;;;;;;;0.91;84.81;94855.06;5048997;28;20049;-76
2021/01/14 04:00:44;;;;;;;1.63;1.33;;;;;;;0.92;84.03;94853.22;5031767;28;20045;-76
2021/01/14 04:03:10;;;;;;;1.70;1.60;;;;;;;0.93;84.28;94863.47;5051605;28;20029;-75
2021/01/14 04:05:35;;;;;;;3.60;2.50;;;;;;;1.13;83.71;94862.03;5032036;28;20037;-74
2021/01/14 04:08:00;;;;;;;2.35;1.50;;;;;;;0.86;84.47;94855.00;5031676;28;20507;-75
2021/01/14 04:10:26;;;;;;;3.30;1.50;;;;;;;0.82;84.52;94853.94;5049591;28;20515;-76
2021/01/14 04:12:52;;;;;;;2.63;2.42;;;;;;;1.06;83.99;94861.44;5049296;28;20086;-75
2021/01/14 04:15:18;;;;;;;4.15;2.60;;;;;;;0.69;84.13;94856.97;5049435;28;20044;-75
2021/01/14 04:17:43;;;;;;;1.60;1.50;;;;;;;0.72;84.04;94867.75;5033648;28;20037;-74
2021/01/14 04:20:09;;;;;;;3.50;2.50;;;;;;;0.93;83.71;94873.94;5049301;28;20067;-76
2021/01/14 04:22:34;;;;;;;4.63;2.97;;;;;;;0.98;83.76;94863.50;5049438;28;20045;-75
2021/01/14 04:25:02;;;;;;;1.23;1.15;;;;;;;0.73;84.42;94884.25;5049295;28;20053;-75
2021/01/14 04:27:29;;;;;;;2.50;2.22;;;;;;;0.91;84.61;94889.09;5049163;28;20036;-74
2021/01/14 04:29:54;;;;;;;2.53;2.28;;;;;;;0.79;84.61;94885.84;5050709;28;20102;-76
2021/01/14 04:32:21;;;;;;;2.13;1.75;;;;;;;0.92;85.04;94898.56;5048716;28;20138;-75
2021/01/14 04:34:47;;;;;;;2.15;2.00;;;;;;;0.87;84.95;94888.03;5048577;28;20040;-75
2021/01/14 04:37:12;;;;;;;3.35;3.00;;;;;;;0.99;85.14;94904.38;5030758;28;20064;-75
2021/01/14 04:39:37;;;;;;;2.10;1.67;;;;;;;0.67;86.24;94869.53;5050531;28;20049;-75
2021/01/14 04:42:07;;;;;;;4.18;2.80;;;;;;;0.77;86.21;94869.63;5036970;28;20029;-75
2021/01/14 04:44:32;;;;;;;4.38;2.65;;;;;;;0.92;86.51;94893.31;5052986;28;20482;-75
2021/01/14 04:47:11;;;;;;;2.22;1.92;;;;;;;0.78;86.99;94886.91;5053183;28;20041;-76
2021/01/14 04:49:36;;;;;;;2.17;1.98;;;;;;;0.75;87.11;94898.66;5052437;28;20028;-75
2021/01/14 04:52:04;;;;;;;2.95;2.65;;;;;;;0.81;88.27;94893.44;5052636;28;20033;-74
2021/01/14 04:54:34;;;;;;;3.00;2.28;;;;;;;0.59;88.80;94909.22;5052572;28;20108;-74
2021/01/14 04:57:17;;;;;;;2.08;1.85;;;;;;;0.36;90.73;94902.44;5054297;28;20509;-74
2021/01/14 04:59:43;;;;;;;3.50;3.20;;;;;;;0.63;90.25;94913.72;5051807;28;20095;-72
2021/01/14 05:02:19;;;;;;;4.80;3.35;;;;;;;0.38;90.69;94908.22;5051523;28;20045;-72
2021/01/14 05:04:45;;;;;;;10.77;2.95;;;;;;;0.50;91.06;94927.97;5051934;28;20045;-71
2021/01/14 05:07:14;;;;;;;2.63;2.25;;;;;;;0.22;91.97;94933.41;5051911;28;20041;-71
2021/01/14 05:09:41;;;;;;;3.72;3.28;;;;;;;0.22;92.63;94902.03;5051480;28;20041;-71
2021/01/14 05:12:07;;;;;;;4.50;4.10;;;;;;;0.24;93.07;94919.06;5053342;28;20029;-71
2021/01/14 05:14:33;;;;;;;4.60;4.20;;;;;;;0.27;93.25;94912.56;5051394;28;20039;-71
2021/01/14 05:16:58;;;;;;;5.20;4.70;;;;;;;0.49;92.18;94918.53;5051366;28;20475;-70
2021/01/14 05:19:24;;;;;;;4.57;4.18;;;;;;;0.41;0.00;94931.25;5033211;28;20074;-71
2021/01/14 05:21:51;;;;;;;7.32;5.88;;;;;;;0.52;91.72;94919.91;5050798;28;20048;-70
2021/01/14 05:24:16;;;;;;;4.97;4.38;;;;;;;0.40;91.55;94925.25;5052819;28;20356;-71
2021/01/14 05:26:43;;;;;;;3.40;3.10;;;;;;;0.36;91.51;94941.66;5051250;28;20052;-70
2021/01/14 05:29:16;;;;;;;7.32;3.60;;;;;;;0.36;91.34;94933.81;5050921;28;20128;-70
2021/01/14 05:31:44;;;;;;;8.05;6.45;;;;;;;0.26;91.62;94921.44;5033015;28;20029;-70
2021/01/14 05:34:10;;;;;;;4.32;3.72;;;;;;;0.20;92.32;94940.69;5033101;28;20049;-70
2021/01/14 05:36:52;;;;;;;5.93;4.38;;;;;;;0.28;92.57;94940.28;5050694;28;20387;-72
2021/01/14 05:39:18;;;;;;;14.02;9.13;;;;;;;0.49;91.46;94942.09;5052475;28;20125;-70
2021/01/14 05:41:44;;;;;;;14.07;5.38;;;;;;;0.08;91.96;94916.50;5051264;28;20037;-70
2021/01/14 05:44:09;;;;;;;6.72;5.18;;;;;;;0.11;92.43;94918.66;5033158;28;20080;-72
2021/01/14 05:46:34;;;;;;;5.53;4.55;;;;;;;0.27;91.77;94930.88;5031966;28;20037;-70
2021/01/14 05:49:04;;;;;;;3.80;2.88;;;;;;;0.13;90.80;94927.03;5032376;28;20053;-70
2021/01/14 05:51:31;;;;;;;4.75;3.28;;;;;;;0.20;90.65;94930.25;5031364;28;20060;-70
2021/01/14 05:54:05;;;;;;;4.15;3.58;;;;;;;0.29;90.42;94959.38;5035165;28;20100;-70
2021/01/14 05:56:46;;;;;;;3.55;2.40;;;;;;;0.30;89.22;94966.97;5050443;28;20127;-70
2021/01/14 05:59:34;;;;;;;4.28;3.60;;;;;;;0.39;88.36;94962.13;5049996;28;20044;-70
2021/01/14 06:02:00;;;;;;;12.27;4.68;;;;;;;0.46;87.63;94958.31;5050510;28;20048;-69
2021/01/14 06:04:32;;;;;;;2.80;2.60;;;;;;;0.40;88.26;94995.09;5032604;28;20041;-69
2021/01/14 06:07:04;;;;;;;5.30;3.97;;;;;;;0.50;87.02;94971.66;5050381;28;20056;-72
2021/01/14 06:09:39;;;;;;;5.85;3.65;;;;;;;0.34;87.03;94981.16;5032187;28;20479;-71
2021/01/14 06:12:13;;;;;;;7.15;3.28;;;;;;;0.39;86.80;94970.75;5034209;28;20023;-70
2021/01/14 06:14:39;;;;;;;5.10;4.60;;;;;;;0.48;86.26;94985.00;5032207;28;20033;-72
2021/01/14 06:17:06;;;;;;;3.38;3.08;;;;;;;0.35;87.43;94990.59;5049361;28;20410;-70
2021/01/14 06:19:32;;;;;;;7.03;4.07;;;;;;;0.41;87.59;95007.16;5031528;28;20052;-70
2021/01/14 06:21:59;;;;;;;5.45;4.40;;;;;;;0.42;87.24;95022.63;5031859;28;20037;-70
2021/01/14 06:24:35;;;;;;;8.05;3.65;;;;;;;0.43;86.98;95018.19;5032143;28;20017;-70
2021/01/14 06:27:04;;;;;;;4.25;3.85;;;;;;;0.46;86.25;95044.66;5052036;28;20390;-70
2021/01/14 06:29:29;;;;;;;4.40;2.75;;;;;;;0.23;85.89;95018.69;5049963;28;20049;-69
2021/01/14 06:32:04;;;;;;;7.25;5.60;;;;;;;0.44;86.14;95041.47;5031724;28;20037;-71
2021/01/14 06:34:32;;;;;;;6.20;5.60;;;;;;;0.57;85.34;95050.81;5049757;28;20033;-72
2021/01/14 06:37:05;;;;;;;5.57;3.80;;;;;;;0.36;84.59;95039.28;5050102;28;20133;-71
2021/01/14 06:39:37;;;;;;;4.72;3.03;;;;;;;0.37;84.12;95040.88;5049250;28;20045;-69
2021/01/14 06:42:28;;;;;;;4.03;3.53;;;;;;;0.27;83.65;95019.81;5051368;28;20419;-71
2021/01/14 06:44:58;;;;;;;6.05;4.20;;;;;;;0.48;83.62;95053.03;5049302;28;20358;-70
2021/01/14 06:47:32;;;;;;;7.93;6.20;;;;;;;0.67;82.95;95044.91;5049187;28;20098;-71
2021/01/14 06:50:15;;;;;;;5.50;4.45;;;;;;;0.52;82.32;95042.91;5031303;28;20091;-70
2021/01/14 06:53:08;;;;;;;5.88;4.38;;;;;;;0.41;83.09;95055.06;5049131;28;20141;-70
2021/01/14 06:55:36;;;;;;;10.98;5.30;;;;;;;0.15;83.06;95021.72;5030126;28;20037;-69
2021/01/14 06:58:07;;;;;;;4.75;3.70;;;;;;;0.43;83.84;95055.59;5031088;28;20064;-67
2021/01/14 07:00:39;;;;;;;5.63;4.22;;;;;;;0.40;82.73;95078.81;5049230;28;20040;-67
2021/01/14 07:03:16;;;;;;;8.00;6.50;;;;;;;0.59;83.63;95081.97;5032680;28;20025;-67
2021/01/14 07:05:44;;;;;;;8.52;5.93;;;;;;;0.60;82.89;95079.09;5048957;28;20044;-68
2021/01/14 07:08:28;;;;;;;5.03;4.18;;;;;;;0.44;83.00;95093.03;5048921;28;20056;-69
2021/01/14 07:11:11;;;;;;;14.98;7.85;;;;;;;0.60;82.84;95081.72;5049777;28;20124;-66
2021/01/14 07:13:39;;;;;;;10.52;7.78;;;;;;;0.63;82.03;95065.53;5049233;28;20044;-73
2021/01/14 07:16:05;;;;;;;9.95;5.65;;;;;;;0.64;82.28;95093.28;5050465;28;20040;-68
2021/01/14 07:18:32;;;;;;;14.50;7.55;;;;;;;0.63;82.25;95080.44;5050513;28;20033;-67
2021/01/14 07:21:09;;;;;;;8.18;5.85;;;;;;;0.66;83.24;95106.13;5039340;28;20045;-67
2021/01/14 07:23:42;;;;;;;13.40;7.10;;;;;;;0.25;83.49;95043.56;5028181;28;20372;-68
2021/01/14 07:26:09;;;;;;;7.15;5.47;;;;;;;0.40;83.83;95084.06;5029852;28;20124;-68
2021/01/14 07:28:36;;;;;;;9.65;6.55;;;;;;;0.66;83.65;95111.38;5029306;28;20106;-68
2021/01/14 07:31:25;;;;;;;5.93;5.32;;;;;;;0.54;83.82;95106.25;5029940;28;20076;-68
2021/01/14 07:33:51;;;;;;;6.43;5.80;;;;;;;0.61;83.67;95111.28;5012183;28;20037;-68
2021/01/14 07:36:21;;;;;;;7.20;5.15;;;;;;;0.59;83.67;95119.41;5031863;28;20025;-68
2021/01/14 07:38:49;;;;;;;7.80;5.85;;;;;;;0.87;82.37;95120.25;5012332;28;20451;-68
2021/01/14 07:41:15;;;;;;;6.68;6.07;;;;;;;0.88;82.90;95133.13;5029379;28;20068;-68
2021/01/14 07:43:41;;;;;;;7.32;4.82;;;;;;;0.76;82.28;95142.91;5029647;28;20065;-68
2021/01/14 07:46:15;;;;;;;4.68;4.15;;;;;;;0.50;83.26;95136.53;5028379;28;20495;-68
2021/01/14 07:48:40;;;;;;;5.28;4.78;;;;;;;0.59;82.45;95116.00;5029415;28;20065;-67
2021/01/14 07:51:06;;;;;;;6.82;6.22;;;;;;;0.75;81.70;95112.53;5013877;28;20113;-68
2021/01/14 07:53:31;;;;;;;10.77;5.25;;;;;;;0.61;81.76;95114.69;5029218;28;20037;-68
2021/01/14 07:56:24;;;;;;;9.27;6.53;;;;;;;0.93;80.80;95132.41;5029492;28;20045;-67
2021/01/14 07:58:53;;;;;;;9.25;5.68;;;;;;;0.85;80.51;95133.63;5028693;28;20041;-69
2021/01/14 08:01:18;;;;;;;7.15;5.03;;;;;;;0.72;79.36;95120.88;5029359;28;20068;-67
2021/01/14 08:03:44;;;;;;;7.18;6.47;;;;;;;1.12;79.26;95148.59;5029159;28;20061;-69
2021/01/14 08:06:19;;;;;;;9.80;5.22;;;;;;;0.85;79.21;95145.91;5031438;28;20116;-69
2021/01/14 08:08:55;;;;;;;6.57;5.45;;;;;;;0.65;79.67;95147.22;5029470;28;20529;-69
2021/01/14 08:11:25;;;;;;;6.22;5.30;;;;;;;0.62;79.30;95154.78;5011424;28;20473;-69
2021/01/14 08:14:11;;;;;;;5.38;4.07;;;;;;;0.55;79.58;95164.63;5030044;28;20486;-68
2021/01/14 08:16:43;;;;;;;6.07;5.20;;;;;;;0.72;79.00;95173.25;5033352;28;20038;-69
2021/01/14 08:19:15;;;;;;;8.60;5.78;;;;;;;0.82;78.74;95173.38;5015222;28;20041;-67
2021/01/14 08:21:47;;;;;;;5.63;5.03;;;;;;;0.64;79.06;95168.41;5033206;28;20038;-67
2021/01/14 08:24:33;;;;;;;8.98;5.00;;;;;;;0.59;78.90;95179.59;5035584;28;20033;-69
2021/01/14 08:27:10;;;;;;;8.23;5.28;;;;;;;0.92;78.15;95167.47;5015947;28;20034;-67
2021/01/14 08:29:50;;;;;;;6.97;5.40;;;;;;;0.84;78.54;95181.78;5015033;28;20038;-68
2021/01/14 08:32:32;;;;;;;7.90;5.03;;;;;;;0.69;78.66;95190.22;5015394;28;20044;-67
2021/01/14 08:35:15;;;;;;;6.47;5.18;;;;;;;0.91;78.07;95198.09;5033193;28;20074;-70
2021/01/14 08:37:51;;;;;;;7.78;5.50;;;;;;;1.17;77.49;95187.97;5015462;28;20426;-70
2021/01/14 08:40:17;;;;;;;7.72;5.38;;;;;;;0.94;78.25;95186.38;5032587;28;20041;-71
2021/01/14 08:42:47;;;;;;;10.43;5.55;;;;;;;1.10;78.30;95185.53;5032986;28;20510;-69
2021/01/14 08:45:21;;;;;;;6.40;5.80;;;;;;;1.17;77.97;95187.97;5053858;28;20470;-68
2021/01/14 08:47:55;;;;;;;5.78;5.00;;;;;;;1.06;78.64;95215.84;5064653;28;20045;-72
2021/01/14 08:50:40;;;;;;;7.30;5.10;;;;;;;1.08;79.17;95221.66;5062155;28;20076;-74
2021/01/14 08:53:11;;;;;;;9.88;5.22;;;;;;;0.79;79.48;95210.50;5053067;28;20037;-70
2021/01/14 08:55:37;;;;;;;5.35;2.83;;;;;;;0.30;79.71;95157.19;5035225;28;20041;-73
2021/01/14 08:58:06;;;;;;;4.55;3.88;;;;;;;0.41;80.27;95191.13;5035517;28;20049;-66
2021/01/14 09:00:32;;;;;;;5.05;4.50;;;;;;;0.97;79.50;95235.63;5052470;28;20036;-67
2021/01/14 09:02:58;;;;;;;4.20;3.80;;;;;;;0.78;79.42;95225.44;5036852;28;20693;-73
2021/01/14 09:05:23;;;;;;;7.45;5.32;;;;;;;0.87;79.48;95240.72;5035263;28;20506;-70
2021/01/14 09:08:04;;;;;;;4.45;3.67;;;;;;;0.86;78.78;95239.94;5053451;28;20030;-83
2021/01/14 09:10:41;;;;;;;5.25;4.18;;;;;;;0.85;77.21;95243.59;5053075;28;20045;-71
2021/01/14 09:13:11;;;;;;;5.38;4.85;;;;;;;0.92;77.65;95257.31;5035775;28;20532;-72
2021/01/14 09:15:37;;;;;;;5.43;4.93;;;;;;;1.00;77.33;95262.13;5052715;28;20104;-76
2021/01/14 09:18:03;;;;;;;5.40;4.90;;;;;;;0.91;77.75;95263.56;5054440;28;20032;-72
2021/01/14 09:20:29;;;;;;;3.55;3.25;;;;;;;0.78;77.61;95266.53;5052780;28;20075;-80
2021/01/14 09:23:17;;;;;;;5.50;5.07;;;;;;;0.84;76.78;95239.38;5034555;28;20041;-74
2021/01/14 09:25:43;;;;;;;5.78;5.25;;;;;;;0.93;76.93;95266.75;5034301;28;20372;-71
2021/01/14 09:28:08;;;;;;;6.97;5.15;;;;;;;0.78;77.07;95256.84;5052031;28;20049;-73
2021/01/14 09:30:34;;;;;;;7.70;5.07;;;;;;;1.23;76.24;95266.41;5052219;28;20017;-80
2021/01/14 09:32:59;;;;;;;5.00;4.28;;;;;;;1.09;75.11;95259.91;5036864;28;20055;-78
2021/01/14 09:35:26;;;;;;;9.95;4.20;;;;;;;1.10;73.84;95266.72;5051034;28;20048;-71
2021/01/14 09:37:53;;;;;;;5.93;5.05;;;;;;;1.11;74.67;95272.75;5051883;28;20040;-70
2021/01/14 09:40:19;;;;;;;5.03;4.05;;;;;;;0.54;75.43;95239.72;5051442;28;20041;-71
2021/01/14 09:42:47;;;;;;;5.30;4.18;;;;;;;0.86;74.86;95286.28;5052300;28;20086;-79
2021/01/14 09:45:13;;;;;;;6.95;4.38;;;;;;;0.95;73.84;95267.31;5054134;28;20032;-74
2021/01/14 09:47:39;;;;;;;7.47;5.30;;;;;;;1.06;73.20;95238.63;5035011;28;20406;-74
2021/01/14 09:50:05;;;;;;;6.25;3.83;;;;;;;1.23;73.45;95289.97;5052374;28;20038;-70
2021/01/14 09:52:30;;;;;;;8.80;3.25;;;;;;;0.42;74.56;95241.63;5033308;28;20040;-74
2021/01/14 09:54:56;;;;;;;6.07;4.78;;;;;;;0.90;74.80;95296.03;5032369;28;20037;-82
2021/01/14 09:57:23;;;;;;;6.15;4.60;;;;;;;1.22;74.50;95295.44;5051267;28;20408;-72
2021/01/14 09:59:51;;;;;;;6.70;3.72;;;;;;;1.21;73.92;95289.41;5053999;28;20104;-84
2021/01/14 10:02:26;;;;;;;5.25;4.25;;;;;;;1.10;74.47;95295.56;5034974;28;20045;-79
2021/01/14 10:04:57;;;;;;;6.15;4.70;;;;;;;1.13;74.55;95262.84;5052893;28;20064;-80
2021/01/14 10:07:25;;;;;;;6.13;4.07;;;;;;;0.66;75.94;95258.75;5052540;28;20037;-71
2021/01/14 10:09:51;;;;;;;5.28;4.78;;;;;;;1.14;75.61;95259.19;5052483;28;20040;-80
2021/01/14 10:12:16;;;;;;;11.10;5.13;;;;;;;0.64;76.41;95233.84;5054751;28;20017;-80
2021/01/14 10:14:41;;;;;;;5.30;4.80;;;;;;;1.03;76.27;95287.06;5053366;28;20033;-86
2021/01/14 10:17:17;;;;;;;7.22;4.15;;;;;;;0.45;77.88;95299.50;5052718;28;20060;-83
2021/01/14 10:19:51;;;;;;;6.07;3.83;;;;;;;0.55;76.79;95290.25;5052474;28;20119;-81
2021/01/14 10:22:16;;;;;;;11.00;4.60;;;;;;;0.69;76.80;95296.75;5052508;28;20102;-80
2021/01/14 10:24:42;;;;;;;5.65;4.70;;;;;;;0.96;75.17;95291.66;5052468;28;20500;-82
2021/01/14 10:27:19;;;;;;;7.78;4.70;;;;;;;0.94;74.25;95285.88;5036646;28;20017;-78
2021/01/14 10:29:59;;;;;;;6.78;4.38;;;;;;;0.99;75.05;95273.66;5052813;28;20123;-77
2021/01/14 10:32:25;;;;;;;6.22;3.90;;;;;;;1.01;73.69;95274.19;5033534;28;20068;-72
2021/01/14 10:34:53;;;;;;;3.88;2.22;;;;;;;0.78;71.67;95306.59;5052369;28;20483;-74
2021/01/14 10:37:30;;;;;;;2.50;2.30;;;;;;;0.73;71.48;95308.34;5033678;28;20524;-72
2021/01/14 10:40:01;;;;;;;2.72;1.67;;;;;;;0.39;71.45;95290.00;5051283;28;20052;-75
2021/01/14 10:42:38;;;;;;;2.00;1.65;;;;;;;0.47;71.96;95317.59;5052689;28;20059;-73
2021/01/14 10:45:07;;;;;;;5.15;2.28;;;;;;;0.95;70.75;95311.03;5037056;28;20082;-73
2021/01/14 10:47:33;;;;;;;2.22;1.95;;;;;;;0.72;70.02;95304.16;5035747;28;20075;-79
2021/01/14 10:49:59;;;;;;;2.65;2.10;;;;;;;0.85;70.45;95314.28;5053586;28;20052;-73
2021/01/14 10:52:24;;;;;;;2.15;1.70;;;;;;;0.78;68.43;95290.91;5051912;28;20175;-74
2021/01/14 10:55:00;;;;;;;2.38;1.77;;;;;;;1.07;68.87;95319.59;5051963;28;20076;-73
2021/01/14 10:57:54;;;;;;;0.88;0.88;;;;;;;0.75;69.67;95319.38;5053146;28;20470;-70
2021/01/14 11:00:22;;;;;;;1.42;1.20;;;;;;;0.27;70.61;95331.13;5032789;28;20079;-72
2021/01/14 11:02:48;;;;;;;3.45;1.83;;;;;;;0.02;71.38;95320.19;5052215;28;20044;-72
2021/01/14 11:05:15;;;;;;;4.68;2.20;;;;;;;0.08;71.16;95311.41;5050433;28;20112;-73
2021/01/14 11:07:41;;;;;;;3.53;2.03;;;;;;;-0.07;71.28;95325.78;5050374;28;20041;-72
2021/01/14 11:10:08;;;;;;;3.67;1.60;;;;;;;-0.39;72.11;95312.34;5031904;28;20033;-73
2021/01/14 11:12:34;;;;;;;2.25;1.75;;;;;;;-0.20;71.58;95330.50;5049807;28;20029;-73
2021/01/14 11:14:59;;;;;;;3.92;1.73;;;;;;;0.09;70.46;95320.84;5052150;28;20036;-74
2021/01/14 11:17:25;;;;;;;1.63;1.52;;;;;;;0.29;69.99;95343.97;5050216;28;20482;-72
2021/01/14 11:19:51;;;;;;;3.65;1.83;;;;;;;0.59;70.17;95326.19;5032133;28;20124;-75
2021/01/14 11:22:16;;;;;;;2.65;1.50;;;;;;;0.30;70.61;95341.09;5050003;28;20120;-74
2021/01/14 11:24:41;;;;;;;2.90;1.90;;;;;;;0.34;71.39;95339.63;5032227;28;20076;-73
2021/01/14 11:27:07;;;;;;;1.33;1.13;;;;;;;0.15;71.10;95346.06;5051930;28;20029;-72
2021/01/14 11:29:33;;;;;;;2.15;1.50;;;;;;;0.29;71.20;95341.34;5049487;28;20107;-73
2021/01/14 11:32:00;;;;;;;1.90;1.38;;;;;;;0.23;72.03;95340.47;5049882;28;20040;-78
2021/01/14 11:34:25;;;;;;;2.10;1.40;;;;;;;0.13;71.77;95350.75;5049949;28;20088;-70
2021/01/14 11:36:50;;;;;;;3.42;1.58;;;;;;;0.61;70.68;95349.50;5049717;28;20036;-70
2021/01/14 11:39:16;;;;;;;3.90;1.33;;;;;;;0.39;71.43;95375.56;5051411;28;20110;-72
2021/01/14 11:41:41;;;;;;;2.15;0.90;;;;;;;0.03;73.03;95371.47;5032016;28;20033;-71
2021/01/14 11:44:06;;;;;;;1.98;1.20;;;;;;;-0.24;74.56;95371.97;5051030;28;20044;-69
2021/01/14 11:46:32;;;;;;;1.77;1.40;;;;;;;-0.12;74.46;95362.28;5049726;28;20487;-69
2021/01/14 11:48:57;;;;;;;1.35;1.10;;;;;;;-0.29;74.66;95366.66;5030528;28;20041;-70
2021/01/14 11:51:23;;;;;;;1.33;1.10;;;;;;;-0.63;75.70;95370.88;5049233;28;20028;-69